createdAt,value
2019-04-23T00:02:46.166Z,34.70
2019-04-23T00:04:55.557Z,34.64
2019-04-23T00:07:41.480Z,34.72
2019-04-23T00:10:03.512Z,34.93
2019-04-23T00:12:40.564Z,34.93
2019-04-23T00:15:04.878Z,34.99
2019-04-23T00:17:29.944Z,35.17
2019-04-23T00:19:55.719Z,35.12
2019-04-23T00:22:50.058Z,35.21
2019-04-23T00:28:02.551Z,35.31
2019-04-23T00:30:40.063Z,35.09
2019-04-23T00:33:00.431Z,35.07
2019-04-23T00:35:29.104Z,35.10
2019-04-23T00:37:54.988Z,35.43
2019-04-23T00:40:25.911Z,35.47
2019-04-23T00:42:47.820Z,35.55
2019-04-23T00:45:16.774Z,35.54
2019-04-23T00:47:52.563Z,35.51
2019-04-23T00:50:20.670Z,35.66
2019-04-23T00:52:45.680Z,35.51
2019-04-23T00:55:14.745Z,35.61
2019-04-23T00:57:48.520Z,35.53
2019-04-23T01:00:23.826Z,35.74
2019-04-23T01:02:51.142Z,35.90
2019-04-23T01:07:44.558Z,36.29
2019-04-23T01:10:25.490Z,36.20
2019-04-23T01:12:46.459Z,36.02
2019-04-23T01:15:21.306Z,36.08
2019-04-23T01:17:49.135Z,35.96
2019-04-23T01:20:41.985Z,36.15
2019-04-23T01:22:44.316Z,36.33
2019-04-23T01:25:24.950Z,36.23
2019-04-23T01:28:13.964Z,36.44
2019-04-23T01:30:52.761Z,36.49
2019-04-23T01:33:29.454Z,36.56
2019-04-23T01:35:55.779Z,36.54
2019-04-23T01:38:22.203Z,36.38
2019-04-23T01:40:42.491Z,36.38
2019-04-23T01:43:12.560Z,36.50
2019-04-23T01:45:54.476Z,36.55
2019-04-23T01:48:05.225Z,36.67
2019-04-23T01:50:43.766Z,36.60
2019-04-23T01:55:52.750Z,36.92
2019-04-23T01:58:27.498Z,36.80
2019-04-23T02:00:37.040Z,36.81
2019-04-23T02:08:03.298Z,36.86
2019-04-23T02:10:42.729Z,36.95
2019-04-23T02:13:02.237Z,37.08
2019-04-23T02:15:33.982Z,37.13
2019-04-23T02:20:39.903Z,37.66
2019-04-23T02:23:19.258Z,37.74
2019-04-23T02:28:19.876Z,37.43
2019-04-23T02:33:29.852Z,37.74
2019-04-23T02:35:56.179Z,38.16
2019-04-23T02:41:06.620Z,37.99
2019-04-23T02:45:47.737Z,38.26
2019-04-23T02:48:24.763Z,38.25
2019-04-23T02:50:40.074Z,38.63
2019-04-23T02:53:20.079Z,38.68
2019-04-23T02:55:43.147Z,38.56
2019-04-23T02:58:17.005Z,38.63
2019-04-23T03:00:46.352Z,39.01
2019-04-23T03:05:42.587Z,39.63
2019-04-23T03:10:31.246Z,39.55
2019-04-23T03:18:42.087Z,40.29
2019-04-23T03:29:49.221Z,40.26
2019-04-23T03:39:02.963Z,40.99
2019-04-23T03:41:48.714Z,41.21
2019-04-23T03:44:16.623Z,41.37
2019-04-23T03:49:11.753Z,41.47
2019-04-23T03:51:43.370Z,41.32
2019-04-23T03:54:25.841Z,41.47
2019-04-23T03:56:54.332Z,41.58
2019-04-23T03:59:11.935Z,41.83
2019-04-23T04:01:38.396Z,42.00
2019-04-23T04:06:45.503Z,42.55
2019-04-23T04:09:23.347Z,42.40
2019-04-23T04:11:25.634Z,42.77
2019-04-23T04:14:15.901Z,42.99
2019-04-23T04:16:38.697Z,43.31
2019-04-23T04:19:07.540Z,43.64
2019-04-23T04:24:20.357Z,43.66
2019-04-23T04:26:36.224Z,43.34
2019-04-23T04:29:11.715Z,43.75
2019-04-23T04:31:35.114Z,43.99
2019-04-23T04:34:25.809Z,43.71
2019-04-23T04:41:28.293Z,44.25
2019-04-23T04:44:17.568Z,44.46
2019-04-23T04:48:49.209Z,45.15
2019-04-23T04:51:19.442Z,44.80
2019-04-23T04:58:47.549Z,44.53
2019-04-23T05:03:29.179Z,45.27
2019-04-23T05:06:16.237Z,45.39
2019-04-23T05:13:51.460Z,45.73
2019-04-23T05:16:19.688Z,45.78
2019-04-23T05:18:46.817Z,45.86
2019-04-23T05:21:14.120Z,45.80
2019-04-23T05:26:19.166Z,46.14
2019-04-23T05:28:52.329Z,46.01
2019-04-23T05:31:16.701Z,45.60
2019-04-23T05:33:43.422Z,45.58
2019-04-23T05:38:50.812Z,45.42
2019-04-23T05:43:40.811Z,45.18
2019-04-23T05:46:13.035Z,45.44
2019-04-23T05:48:42.031Z,45.34
2019-04-23T05:51:14.360Z,45.47
2019-04-23T05:56:10.175Z,45.41
2019-04-23T05:58:38.411Z,45.45
2019-04-23T06:01:33.598Z,45.15
2019-04-23T06:03:48.896Z,45.19
2019-04-23T06:06:25.814Z,45.25
2019-04-23T06:08:47.561Z,45.26
2019-04-23T06:11:18.888Z,45.32
2019-04-23T06:13:57.570Z,45.68
2019-04-23T06:16:36.397Z,45.69
2019-04-23T06:21:34.743Z,45.68
2019-04-23T06:26:39.640Z,45.12
2019-04-23T06:28:59.046Z,45.14
2019-04-23T06:33:57.202Z,45.12
2019-04-23T06:36:32.388Z,45.48
2019-04-23T06:38:58.123Z,45.16
2019-04-23T06:41:30.908Z,44.73
2019-04-23T06:44:19.116Z,44.73
2019-04-23T06:46:46.015Z,44.52
2019-04-23T06:49:09.418Z,44.41
2019-04-23T06:51:43.804Z,44.49
2019-04-23T06:54:03.396Z,44.50
2019-04-23T06:56:43.356Z,44.83
2019-04-23T06:59:07.939Z,44.69
2019-04-23T07:01:37.761Z,44.75
2019-04-23T07:04:08.363Z,44.83
2019-04-23T07:06:58.210Z,44.75
2019-04-23T07:09:11.626Z,44.80
2019-04-23T07:11:34.090Z,45.02
2019-04-23T07:13:58.525Z,45.31
2019-04-23T07:16:28.288Z,45.56
2019-04-23T07:19:04.596Z,45.32
2019-04-23T07:21:46.472Z,45.39
2019-04-23T07:36:30.866Z,45.00
2019-04-23T07:39:43.102Z,45.04
2019-04-23T07:47:43.533Z,44.68
2019-04-23T07:50:09.833Z,44.76
2019-04-23T07:52:35.577Z,44.59
2019-04-23T07:55:02.700Z,44.51
2019-04-23T07:57:40.037Z,44.45
2019-04-23T08:02:26.158Z,44.55
2019-04-23T08:05:00.853Z,44.53
2019-04-23T08:09:54.657Z,44.82
2019-04-23T08:12:28.848Z,44.55
2019-04-23T08:14:55.224Z,44.64
2019-04-23T08:17:16.825Z,44.41
2019-04-23T08:24:55.496Z,44.45
2019-04-23T08:27:27.928Z,44.60
2019-04-23T08:29:58.019Z,44.58
2019-04-23T08:32:47.687Z,44.85
2019-04-23T08:35:01.261Z,44.57
2019-04-23T08:37:46.684Z,45.31
2019-04-23T08:39:57.119Z,45.94
2019-04-23T08:45:22.716Z,45.04
2019-04-23T08:48:14.309Z,44.92
2019-04-23T08:53:18.338Z,45.10
2019-04-23T08:55:46.347Z,44.97
2019-04-23T08:57:59.811Z,45.16
2019-04-23T09:00:40.422Z,45.00
2019-04-23T09:03:05.676Z,45.02
2019-04-23T09:05:41.858Z,45.11
2019-04-23T09:08:07.141Z,45.02
2019-04-23T09:10:46.249Z,45.14
2019-04-23T09:13:33.365Z,44.95
2019-04-23T09:18:09.267Z,44.20
2019-04-23T09:20:32.761Z,43.75
2019-04-23T09:23:04.139Z,43.81
2019-04-23T09:30:32.413Z,43.62
2019-04-23T09:33:32.399Z,43.33
2019-04-23T09:36:22.430Z,43.02
2019-04-23T09:39:20.645Z,43.09
2019-04-23T09:41:37.277Z,43.11
2019-04-23T09:44:50.795Z,43.19
2019-04-23T09:47:19.562Z,43.05
2019-04-23T09:49:57.312Z,42.88
2019-04-23T09:52:21.056Z,43.05
2019-04-23T09:54:58.598Z,43.03
2019-04-23T09:57:22.410Z,42.80
2019-04-23T09:59:49.889Z,42.73
2019-04-23T10:02:08.708Z,42.67
2019-04-23T10:04:33.073Z,42.84
2019-04-23T10:07:02.068Z,42.89
2019-04-23T10:09:18.831Z,42.48
2019-04-23T10:11:47.276Z,42.29
2019-04-23T10:14:14.692Z,42.20
2019-04-23T10:16:43.195Z,42.17
2019-04-23T10:19:12.147Z,42.03
2019-04-23T10:21:41.859Z,41.88
2019-04-23T10:24:10.607Z,41.86
2019-04-23T10:26:37.913Z,41.87
2019-04-23T10:29:11.781Z,41.74
2019-04-23T10:31:40.062Z,41.96
2019-04-23T10:34:08.269Z,42.21
2019-04-23T10:36:37.902Z,41.86
2019-04-23T10:39:11.601Z,41.85
2019-04-23T10:41:35.805Z,41.69
2019-04-23T10:44:10.994Z,41.66
2019-04-23T10:47:15.106Z,41.72
2019-04-23T10:49:53.330Z,41.51
2019-04-23T10:54:45.645Z,41.23
2019-04-23T10:57:16.707Z,41.10
2019-04-23T11:07:28.374Z,40.70
2019-04-23T11:12:37.100Z,40.79
2019-04-23T11:20:15.027Z,40.50
2019-04-23T11:25:14.725Z,40.59
2019-04-23T11:27:35.769Z,40.73
2019-04-23T11:30:10.803Z,40.67
2019-04-23T11:32:46.725Z,41.35
2019-04-23T11:35:11.549Z,41.34
2019-04-23T11:37:41.156Z,41.53
2019-04-23T11:40:03.976Z,41.31
2019-04-23T11:48:13.768Z,40.41
2019-04-23T11:50:09.649Z,40.17
2019-04-23T11:52:36.036Z,40.08
2019-04-23T11:59:53.393Z,39.89
2019-04-23T12:02:38.996Z,40.43
2019-04-23T12:06:04.163Z,40.68
2019-04-23T12:09:25.931Z,40.48
2019-04-23T12:11:39.475Z,40.79
2019-04-23T12:16:38.120Z,40.30
2019-04-23T12:19:25.380Z,39.92
2019-04-23T12:21:41.669Z,40.31
2019-04-23T12:24:04.871Z,40.39
2019-04-23T12:26:35.428Z,40.61
2019-04-23T12:29:10.017Z,40.23
2019-04-23T12:31:34.279Z,39.92
2019-04-23T12:33:57.421Z,39.99
2019-04-23T12:36:38.875Z,40.02
2019-04-23T12:39:04.390Z,39.93
2019-04-23T12:41:42.086Z,40.20
2019-04-23T12:44:03.169Z,40.32
2019-04-23T12:46:29.742Z,40.07
2019-04-23T12:51:38.040Z,39.36
2019-04-23T12:53:49.375Z,38.82
2019-04-23T12:56:31.815Z,38.37
2019-04-23T12:58:45.238Z,38.03
2019-04-23T13:01:25.782Z,37.69
2019-04-23T13:03:45.526Z,37.13
2019-04-23T13:06:17.076Z,36.95
2019-04-23T13:08:51.552Z,36.52
2019-04-23T13:11:23.331Z,36.73
2019-04-23T13:16:16.389Z,36.29
2019-04-23T13:18:46.720Z,36.48
2019-04-23T13:21:39.180Z,36.29
2019-04-23T13:23:41.001Z,36.46
2019-04-23T13:26:18.131Z,36.23
2019-04-23T13:28:45.208Z,36.12
2019-04-23T13:31:14.974Z,35.64
2019-04-23T13:36:19.138Z,34.44
2019-04-23T13:38:41.806Z,33.60
2019-04-23T13:41:17.397Z,33.45
2019-04-23T13:48:34.449Z,33.62
2019-04-23T13:51:14.196Z,33.35
2019-04-23T13:53:40.772Z,33.09
2019-04-23T13:56:09.141Z,33.03
2019-04-23T13:58:43.341Z,33.49
2019-04-23T14:01:18.556Z,33.57
2019-04-23T14:11:17.401Z,33.36
2019-04-23T14:13:46.986Z,33.24
2019-04-23T14:16:13.830Z,33.73
2019-04-23T14:21:10.339Z,33.86
2019-04-23T14:23:59.182Z,34.36
2019-04-23T14:26:15.915Z,34.28
2019-04-23T14:28:34.326Z,34.53
2019-04-23T14:31:03.063Z,34.65
2019-04-23T14:33:37.001Z,34.63
2019-04-23T14:41:05.568Z,34.90
2019-04-23T14:43:21.946Z,34.65
2019-04-23T14:46:23.003Z,34.17
2019-04-23T14:48:23.170Z,34.03
2019-04-23T14:51:00.070Z,34.35
2019-04-23T14:53:27.346Z,34.80
2019-04-23T14:58:35.418Z,34.65
2019-04-23T15:01:15.600Z,34.77
2019-04-23T15:03:35.318Z,35.08
2019-04-23T15:06:11.025Z,35.03
2019-04-23T15:11:06.325Z,35.00
2019-04-23T15:13:22.779Z,35.13
2019-04-23T15:15:53.470Z,35.08
2019-04-23T15:18:45.233Z,34.91
2019-04-23T15:21:27.716Z,34.86
2019-04-23T15:28:14.574Z,34.61
2019-04-23T15:31:17.942Z,34.10
2019-04-23T15:34:07.535Z,34.22
2019-04-23T15:39:05.919Z,34.12
2019-04-23T15:43:57.424Z,33.88
2019-04-23T15:46:30.665Z,34.08
2019-04-23T15:49:01.395Z,34.09
2019-04-23T15:51:28.537Z,34.42
2019-04-23T15:53:51.342Z,34.40
2019-04-23T15:56:26.843Z,34.55
2019-04-23T16:03:20.532Z,33.99
2019-04-23T16:05:48.767Z,33.78
2019-04-23T16:08:55.543Z,33.52
2019-04-23T16:11:26.466Z,33.48
2019-04-23T16:14:08.264Z,33.80
2019-04-23T16:16:17.700Z,33.83
2019-04-23T16:19:07.242Z,33.83
2019-04-23T16:21:48.354Z,33.68
2019-04-23T16:24:11.027Z,33.58
2019-04-23T16:26:45.022Z,33.69
2019-04-23T16:29:30.877Z,33.69
2019-04-23T16:31:39.839Z,33.74
2019-04-23T16:34:13.899Z,33.85
2019-04-23T16:36:41.626Z,34.15
2019-04-23T16:39:07.489Z,34.20
2019-04-23T16:41:42.224Z,34.34
2019-04-23T16:44:15.831Z,34.51
2019-04-23T16:46:44.365Z,34.62
2019-04-23T16:49:15.545Z,34.74
2019-04-23T16:51:37.361Z,35.07
2019-04-23T16:54:09.637Z,35.04
2019-04-23T16:59:15.343Z,35.44
2019-04-23T17:01:25.009Z,35.59
2019-04-23T17:04:03.823Z,35.74
2019-04-23T17:06:32.310Z,35.81
2019-04-23T17:09:01.805Z,35.98
2019-04-23T17:11:26.826Z,35.97
2019-04-23T17:14:01.316Z,36.12
2019-04-23T17:16:28.613Z,36.27
2019-04-23T17:19:01.990Z,36.39
2019-04-23T17:21:23.398Z,36.39
2019-04-23T17:23:59.605Z,36.53
2019-04-23T17:26:25.956Z,36.81
2019-04-23T17:31:32.395Z,36.85
2019-04-23T17:36:38.250Z,37.26
2019-04-23T17:39:14.598Z,37.29
2019-04-23T17:42:12.555Z,37.49
2019-04-23T17:45:01.987Z,37.89
2019-04-23T17:47:13.710Z,37.89
2019-04-23T17:49:44.568Z,38.10
2019-04-23T17:52:13.058Z,38.21
2019-04-23T17:57:07.561Z,38.43
2019-04-23T18:00:05.373Z,38.50
2019-04-23T18:02:48.258Z,38.74
2019-04-23T18:04:56.871Z,39.03
2019-04-23T18:07:29.946Z,39.32
2019-04-23T18:09:49.053Z,39.46
2019-04-23T18:12:22.617Z,39.62
2019-04-23T18:14:39.550Z,39.80
2019-04-23T18:17:17.859Z,40.13
2019-04-23T18:20:19.350Z,40.19
2019-04-23T18:22:58.612Z,40.58
2019-04-23T18:25:26.739Z,40.97
2019-04-23T18:27:50.949Z,41.01
2019-04-23T18:30:26.442Z,41.05
2019-04-23T18:33:44.999Z,41.41
2019-04-23T18:38:13.853Z,41.91
2019-04-23T18:40:40.379Z,42.15
2019-04-23T18:43:11.933Z,42.39
2019-04-23T18:46:27.979Z,43.68
2019-04-23T18:48:51.891Z,44.32
2019-04-23T18:51:10.422Z,44.38
2019-04-23T18:53:48.662Z,44.06
2019-04-23T19:01:20.984Z,44.13
2019-04-23T19:06:34.403Z,45.05
2019-04-23T19:09:47.480Z,44.98
2019-04-23T19:12:46.139Z,45.36
2019-04-23T19:15:17.038Z,45.62
2019-04-23T19:17:48.185Z,45.66
2019-04-23T19:20:15.952Z,46.17
2019-04-23T19:22:46.569Z,45.93
2019-04-23T19:25:16.713Z,46.01
2019-04-23T19:30:34.321Z,45.95
2019-04-23T19:32:55.656Z,45.89
2019-04-23T19:35:44.252Z,45.99
2019-04-23T19:37:55.656Z,46.29
2019-04-23T19:40:35.237Z,46.33
2019-04-23T19:43:01.026Z,46.28
2019-04-23T19:45:20.589Z,46.61
2019-04-23T19:47:58.515Z,46.90
2019-04-23T19:50:23.949Z,47.22
2019-04-23T19:53:04.271Z,47.35
2019-04-23T19:55:17.463Z,47.43
2019-04-23T19:57:56.481Z,47.66
2019-04-23T20:00:21.834Z,48.43
2019-04-23T20:03:19.935Z,48.43
2019-04-23T20:05:41.410Z,48.50
2019-04-23T20:13:08.021Z,48.64
2019-04-23T20:15:50.794Z,48.76
2019-04-23T20:17:57.987Z,48.90
2019-04-23T20:20:35.436Z,49.20
2019-04-23T20:22:55.393Z,49.09
2019-04-23T20:26:05.612Z,49.54
2019-04-23T20:28:31.032Z,49.73
2019-04-23T20:36:12.169Z,50.57
2019-04-23T20:38:39.915Z,50.67
2019-04-23T20:41:14.633Z,50.82
2019-04-23T20:43:42.637Z,50.77
2019-04-23T20:48:41.279Z,50.65
2019-04-23T20:51:00.445Z,50.91
2019-04-23T20:53:33.043Z,51.07
2019-04-23T20:56:14.379Z,51.21
2019-04-23T20:58:58.580Z,51.56
2019-04-23T21:01:37.075Z,52.38
2019-04-23T21:04:00.069Z,52.42
2019-04-23T21:06:39.783Z,52.54
2019-04-23T21:11:42.964Z,52.86
2019-04-23T21:14:33.497Z,53.10
2019-04-23T21:16:37.520Z,53.25
2019-04-23T21:18:55.592Z,53.87
2019-04-23T21:21:40.138Z,53.78
2019-04-23T21:23:55.127Z,54.23
2019-04-23T21:26:30.915Z,54.38
2019-04-23T21:31:25.542Z,54.23
2019-04-23T21:34:17.385Z,54.45
2019-04-23T21:42:00.786Z,54.85
2019-04-23T21:44:18.937Z,55.36
2019-04-23T21:46:56.629Z,55.11
2019-04-23T21:51:57.403Z,56.34
2019-04-23T21:54:20.811Z,56.32
2019-04-23T21:56:46.959Z,56.30
2019-04-23T21:59:17.457Z,56.38
2019-04-23T22:01:54.128Z,56.50
2019-04-23T22:14:34.106Z,56.85
2019-04-23T22:17:02.839Z,56.78
2019-04-23T22:24:19.402Z,57.55
2019-04-23T22:26:53.242Z,57.85
2019-04-23T22:29:37.449Z,57.78
2019-04-23T22:32:15.074Z,58.09
2019-04-23T22:34:36.835Z,57.89
2019-04-23T22:37:03.904Z,58.67
2019-04-23T22:39:27.663Z,58.93
2019-04-23T22:41:59.473Z,58.89
2019-04-23T22:44:51.561Z,59.33
2019-04-23T22:49:40.675Z,59.84
2019-04-23T22:52:06.416Z,59.75
2019-04-23T22:54:23.050Z,59.81
2019-04-23T22:56:56.664Z,59.89
2019-04-23T22:59:37.743Z,59.92
2019-04-23T23:02:09.158Z,60.28
2019-04-23T23:04:31.443Z,60.82
2019-04-23T23:07:04.921Z,60.69
2019-04-23T23:09:37.260Z,60.37
2019-04-23T23:24:18.219Z,62.00
2019-04-23T23:26:54.165Z,62.09
2019-04-23T23:29:15.447Z,61.99
2019-04-23T23:31:55.888Z,62.23
2019-04-23T23:34:22.842Z,62.40
2019-04-23T23:36:47.653Z,62.51
2019-04-23T23:39:18.178Z,62.66
2019-04-23T23:41:42.968Z,62.71
2019-04-23T23:44:27.689Z,62.73
2019-04-23T23:49:08.303Z,62.64
2019-04-23T23:56:30.181Z,63.29
2019-04-23T23:59:04.212Z,63.43
